Schoonebeek, Netherlands
Current Conditions -  °F | °C
As of 10:55 PM on Saturday 20 Dec 2014 (Local Time) from EHGG Reporting Station
Broken Clouds Broken Clouds  
Wind Chill: 37°   Ceiling: 3100
Heat Index: 43°   Visibility: 6mi
Dew Point: 36°   Wind: 10mph
Humidity: 76%   Direction: 260°W
Pressure: 30.15"   Gusts: NA
Location:  52.66°N, 6.88°E
Report Text: EHGG 202155Z AUTO 26009KT 230V300 9999 FEW015CB BKN031 BKN03606/02 Q1021
Loading
Personal Weather Stations






























Interactive Weather Map New forecast layout! Learn more

10-Day Weather Forecast

Advertisements
Track Severe Weather on mobile